sensor_id;sensor_type;location;lat;lon;timestamp;pressure;altitude;pressure_sealevel;temperature;humidity
50302;BME280;36550;50.472;19.744;2023-01-27T00:01:28;98222.17;;;-0.69;81.01
50302;BME280;36550;50.472;19.744;2023-01-27T00:04:12;98218.74;;;-0.72;81.00
50302;BME280;36550;50.472;19.744;2023-01-27T00:06:55;98218.16;;;-0.73;81.07
50302;BME280;36550;50.472;19.744;2023-01-27T00:09:39;98221.56;;;-0.70;81.05
50302;BME280;36550;50.472;19.744;2023-01-27T00:12:25;98221.69;;;-0.69;81.11
50302;BME280;36550;50.472;19.744;2023-01-27T00:15:29;98222.73;;;-0.66;81.02
50302;BME280;36550;50.472;19.744;2023-01-27T00:18:14;98226.36;;;-0.64;81.07
50302;BME280;36550;50.472;19.744;2023-01-27T00:20:57;98224.89;;;-0.67;80.89
50302;BME280;36550;50.472;19.744;2023-01-27T00:24:00;98228.81;;;-0.68;80.97
50302;BME280;36550;50.472;19.744;2023-01-27T00:27:04;98229.00;;;-0.71;81.02
50302;BME280;36550;50.472;19.744;2023-01-27T00:29:51;98228.91;;;-0.74;80.88
50302;BME280;36550;50.472;19.744;2023-01-27T00:32:36;98228.67;;;-0.72;80.69
50302;BME280;36550;50.472;19.744;2023-01-27T00:35:39;98227.52;;;-0.71;80.54
50302;BME280;36550;50.472;19.744;2023-01-27T00:38:24;98229.23;;;-0.66;80.60
50302;BME280;36550;50.472;19.744;2023-01-27T00:41:08;98232.44;;;-0.58;80.71
50302;BME280;36550;50.472;19.744;2023-01-27T00:44:02;98234.90;;;-0.52;80.69
50302;BME280;36550;50.472;19.744;2023-01-27T00:46:49;98237.33;;;-0.51;80.40
50302;BME280;36550;50.472;19.744;2023-01-27T00:49:33;98235.78;;;-0.52;80.37
50302;BME280;36550;50.472;19.744;2023-01-27T00:52:16;98237.27;;;-0.53;80.34
50302;BME280;36550;50.472;19.744;2023-01-27T00:55:00;98237.27;;;-0.51;80.48
50302;BME280;36550;50.472;19.744;2023-01-27T00:57:44;98238.46;;;-0.50;80.43
50302;BME280;36550;50.472;19.744;2023-01-27T01:00:28;98235.69;;;-0.50;80.31
50302;BME280;36550;50.472;19.744;2023-01-27T01:03:12;98235.91;;;-0.53;79.60
50302;BME280;36550;50.472;19.744;2023-01-27T01:05:57;98237.04;;;-0.53;79.49
50302;BME280;36550;50.472;19.744;2023-01-27T01:08:42;98235.67;;;-0.53;79.41
50302;BME280;36550;50.472;19.744;2023-01-27T01:11:26;98234.65;;;-0.53;79.19
50302;BME280;36550;50.472;19.744;2023-01-27T01:14:11;98236.61;;;-0.55;79.03
50302;BME280;36550;50.472;19.744;2023-01-27T01:16:54;98233.16;;;-0.60;78.87
50302;BME280;36550;50.472;19.744;2023-01-27T01:19:39;98233.27;;;-0.65;79.01
50302;BME280;36550;50.472;19.744;2023-01-27T01:22:23;98230.73;;;-0.72;78.89
50302;BME280;36550;50.472;19.744;2023-01-27T01:25:07;98228.29;;;-0.78;78.96
50302;BME280;36550;50.472;19.744;2023-01-27T01:27:51;98228.19;;;-0.81;79.12
50302;BME280;36550;50.472;19.744;2023-01-27T01:30:36;98226.77;;;-0.84;78.99
50302;BME280;36550;50.472;19.744;2023-01-27T01:33:20;98228.71;;;-0.79;79.02
50302;BME280;36550;50.472;19.744;2023-01-27T01:36:10;98228.98;;;-0.76;78.91
50302;BME280;36550;50.472;19.744;2023-01-27T01:38:55;98232.04;;;-0.76;78.98
50302;BME280;36550;50.472;19.744;2023-01-27T01:41:39;98231.53;;;-0.83;78.83
50302;BME280;36550;50.472;19.744;2023-01-27T01:44:26;98231.68;;;-0.88;78.99
50302;BME280;36550;50.472;19.744;2023-01-27T01:47:18;98234.34;;;-0.97;78.74
50302;BME280;36550;50.472;19.744;2023-01-27T01:50:03;98228.69;;;-1.03;78.53
50302;BME280;36550;50.472;19.744;2023-01-27T01:52:47;98225.32;;;-1.02;78.60
50302;BME280;36550;50.472;19.744;2023-01-27T01:55:32;98228.30;;;-1.04;78.56
50302;BME280;36550;50.472;19.744;2023-01-27T01:58:17;98230.71;;;-1.06;78.82
50302;BME280;36550;50.472;19.744;2023-01-27T02:01:04;98231.09;;;-1.06;78.98
50302;BME280;36550;50.472;19.744;2023-01-27T02:03:53;98230.77;;;-1.06;79.05
50302;BME280;36550;50.472;19.744;2023-01-27T02:06:42;98229.58;;;-1.08;78.98
50302;BME280;36550;50.472;19.744;2023-01-27T02:09:28;98223.71;;;-1.09;78.72
50302;BME280;36550;50.472;19.744;2023-01-27T02:12:12;98227.48;;;-1.09;78.45
50302;BME280;36550;50.472;19.744;2023-01-27T02:14:57;98228.05;;;-1.10;78.51
50302;BME280;36550;50.472;19.744;2023-01-27T02:17:41;98227.58;;;-1.14;78.52
50302;BME280;36550;50.472;19.744;2023-01-27T02:23:58;98227.75;;;-1.19;78.70
50302;BME280;36550;50.472;19.744;2023-01-27T02:26:44;98227.75;;;-1.21;78.79
50302;BME280;36550;50.472;19.744;2023-01-27T02:29:29;98228.09;;;-1.22;78.48
50302;BME280;36550;50.472;19.744;2023-01-27T02:32:25;98225.96;;;-1.22;77.97
50302;BME280;36550;50.472;19.744;2023-01-27T02:35:12;98223.48;;;-1.21;78.04
50302;BME280;36550;50.472;19.744;2023-01-27T02:37:58;98222.20;;;-1.20;78.34
50302;BME280;36550;50.472;19.744;2023-01-27T02:40:42;98218.57;;;-1.20;78.41
50302;BME280;36550;50.472;19.744;2023-01-27T02:43:27;98219.73;;;-1.20;78.44
50302;BME280;36550;50.472;19.744;2023-01-27T02:46:11;98215.92;;;-1.23;78.29
50302;BME280;36550;50.472;19.744;2023-01-27T02:48:55;98211.35;;;-1.23;78.52
50302;BME280;36550;50.472;19.744;2023-01-27T02:51:39;98208.28;;;-1.23;78.69
50302;BME280;36550;50.472;19.744;2023-01-27T02:54:24;98209.23;;;-1.23;78.72
50302;BME280;36550;50.472;19.744;2023-01-27T02:57:10;98208.16;;;-1.22;78.74
50302;BME280;36550;50.472;19.744;2023-01-27T02:59:54;98212.19;;;-1.16;78.70
50302;BME280;36550;50.472;19.744;2023-01-27T03:02:37;98209.72;;;-1.12;78.72
50302;BME280;36550;50.472;19.744;2023-01-27T03:05:21;98216.85;;;-1.08;78.67
50302;BME280;36550;50.472;19.744;2023-01-27T03:08:05;98218.98;;;-1.05;78.60
50302;BME280;36550;50.472;19.744;2023-01-27T03:10:51;98220.05;;;-1.04;78.58
50302;BME280;36550;50.472;19.744;2023-01-27T03:13:35;98217.71;;;-1.01;78.70
50302;BME280;36550;50.472;19.744;2023-01-27T03:16:20;98222.73;;;-0.98;78.74
50302;BME280;36550;50.472;19.744;2023-01-27T03:19:23;98226.20;;;-0.97;78.68
50302;BME280;36550;50.472;19.744;2023-01-27T03:22:07;98224.97;;;-0.98;78.62
50302;BME280;36550;50.472;19.744;2023-01-27T03:24:51;98227.64;;;-0.99;78.57
50302;BME280;36550;50.472;19.744;2023-01-27T03:27:35;98230.88;;;-1.02;78.32
50302;BME280;36550;50.472;19.744;2023-01-27T03:30:19;98232.66;;;-1.01;78.19
50302;BME280;36550;50.472;19.744;2023-01-27T03:33:03;98225.61;;;-1.00;78.10
50302;BME280;36550;50.472;19.744;2023-01-27T03:35:48;98221.27;;;-0.99;78.04
50302;BME280;36550;50.472;19.744;2023-01-27T03:38:51;98223.10;;;-1.00;78.10
50302;BME280;36550;50.472;19.744;2023-01-27T03:41:54;98220.22;;;-1.04;78.14
50302;BME280;36550;50.472;19.744;2023-01-27T03:44:57;98216.61;;;-1.04;78.32
50302;BME280;36550;50.472;19.744;2023-01-27T03:47:59;98215.95;;;-1.06;78.29
50302;BME280;36550;50.472;19.744;2023-01-27T03:50:43;98220.88;;;-1.10;78.18
50302;BME280;36550;50.472;19.744;2023-01-27T03:53:27;98220.74;;;-1.14;78.04
50302;BME280;36550;50.472;19.744;2023-01-27T03:56:11;98222.70;;;-1.11;78.16
50302;BME280;36550;50.472;19.744;2023-01-27T03:58:55;98225.32;;;-1.10;78.14
50302;BME280;36550;50.472;19.744;2023-01-27T04:01:40;98221.49;;;-1.08;78.03
50302;BME280;36550;50.472;19.744;2023-01-27T04:04:26;98221.84;;;-1.06;78.02
50302;BME280;36550;50.472;19.744;2023-01-27T04:07:28;98223.09;;;-1.07;78.13
50302;BME280;36550;50.472;19.744;2023-01-27T04:10:13;98213.73;;;-1.08;78.17
50302;BME280;36550;50.472;19.744;2023-01-27T04:12:56;98217.02;;;-1.08;78.33
50302;BME280;36550;50.472;19.744;2023-01-27T04:15:40;98217.75;;;-1.08;78.31
50302;BME280;36550;50.472;19.744;2023-01-27T04:18:25;98217.33;;;-1.09;78.31
50302;BME280;36550;50.472;19.744;2023-01-27T04:21:08;98216.83;;;-1.13;78.32
50302;BME280;36550;50.472;19.744;2023-01-27T04:23:52;98218.41;;;-1.13;78.44
50302;BME280;36550;50.472;19.744;2023-01-27T04:26:37;98218.83;;;-1.12;78.54
50302;BME280;36550;50.472;19.744;2023-01-27T04:29:23;98218.84;;;-1.10;78.55
50302;BME280;36550;50.472;19.744;2023-01-27T04:32:09;98218.31;;;-1.05;78.52
50302;BME280;36550;50.472;19.744;2023-01-27T04:34:53;98215.44;;;-0.99;78.45
50302;BME280;36550;50.472;19.744;2023-01-27T04:37:37;98220.70;;;-0.95;78.37
50302;BME280;36550;50.472;19.744;2023-01-27T04:40:20;98220.89;;;-0.93;78.25
50302;BME280;36550;50.472;19.744;2023-01-27T04:43:04;98219.18;;;-0.95;78.33
50302;BME280;36550;50.472;19.744;2023-01-27T04:45:49;98220.45;;;-0.94;78.47
50302;BME280;36550;50.472;19.744;2023-01-27T04:48:33;98220.32;;;-0.94;78.57
50302;BME280;36550;50.472;19.744;2023-01-27T04:51:17;98221.35;;;-0.93;78.67
50302;BME280;36550;50.472;19.744;2023-01-27T04:54:01;98223.84;;;-0.92;78.62
50302;BME280;36550;50.472;19.744;2023-01-27T04:56:54;98223.42;;;-0.91;78.66
50302;BME280;36550;50.472;19.744;2023-01-27T04:59:38;98221.48;;;-0.89;78.70
50302;BME280;36550;50.472;19.744;2023-01-27T05:02:22;98222.81;;;-0.90;78.54
50302;BME280;36550;50.472;19.744;2023-01-27T05:05:06;98224.15;;;-0.93;78.32
50302;BME280;36550;50.472;19.744;2023-01-27T05:07:50;98226.50;;;-0.95;78.20
50302;BME280;36550;50.472;19.744;2023-01-27T05:10:35;98230.04;;;-1.03;78.17
50302;BME280;36550;50.472;19.744;2023-01-27T05:13:19;98228.56;;;-1.10;78.47
50302;BME280;36550;50.472;19.744;2023-01-27T05:16:07;98226.04;;;-1.16;78.45
50302;BME280;36550;50.472;19.744;2023-01-27T05:18:52;98225.00;;;-1.16;78.70
50302;BME280;36550;50.472;19.744;2023-01-27T05:21:36;98227.79;;;-1.18;78.87
50302;BME280;36550;50.472;19.744;2023-01-27T05:24:20;98223.98;;;-1.16;79.01
50302;BME280;36550;50.472;19.744;2023-01-27T05:27:04;98227.94;;;-1.12;79.28
50302;BME280;36550;50.472;19.744;2023-01-27T05:29:48;98233.94;;;-1.16;79.14
50302;BME280;36550;50.472;19.744;2023-01-27T05:32:32;98237.94;;;-1.18;79.08
50302;BME280;36550;50.472;19.744;2023-01-27T05:35:16;98234.83;;;-1.20;79.25
50302;BME280;36550;50.472;19.744;2023-01-27T05:38:00;98232.92;;;-1.19;79.34
50302;BME280;36550;50.472;19.744;2023-01-27T05:40:43;98238.20;;;-1.21;79.52
50302;BME280;36550;50.472;19.744;2023-01-27T05:43:32;98241.25;;;-1.18;79.46
50302;BME280;36550;50.472;19.744;2023-01-27T05:46:18;98239.43;;;-1.18;79.52
50302;BME280;36550;50.472;19.744;2023-01-27T05:49:03;98240.73;;;-1.20;79.50
50302;BME280;36550;50.472;19.744;2023-01-27T05:51:47;98240.77;;;-1.22;79.69
50302;BME280;36550;50.472;19.744;2023-01-27T05:54:31;98244.04;;;-1.24;79.76
50302;BME280;36550;50.472;19.744;2023-01-27T05:57:15;98243.95;;;-1.25;79.89
50302;BME280;36550;50.472;19.744;2023-01-27T05:59:59;98244.13;;;-1.21;79.81
50302;BME280;36550;50.472;19.744;2023-01-27T06:02:43;98245.18;;;-1.20;79.86
50302;BME280;36550;50.472;19.744;2023-01-27T06:05:27;98249.34;;;-1.19;80.22
50302;BME280;36550;50.472;19.744;2023-01-27T06:08:11;98254.30;;;-1.24;80.50
50302;BME280;36550;50.472;19.744;2023-01-27T06:10:54;98253.03;;;-1.28;80.93
50302;BME280;36550;50.472;19.744;2023-01-27T06:13:39;98252.39;;;-1.32;81.22
50302;BME280;36550;50.472;19.744;2023-01-27T06:16:23;98253.73;;;-1.37;81.77
50302;BME280;36550;50.472;19.744;2023-01-27T06:19:09;98251.33;;;-1.37;81.66
50302;BME280;36550;50.472;19.744;2023-01-27T06:21:52;98255.77;;;-1.39;81.79
50302;BME280;36550;50.472;19.744;2023-01-27T06:24:36;98259.88;;;-1.40;82.02
50302;BME280;36550;50.472;19.744;2023-01-27T06:27:20;98259.21;;;-1.39;81.86
50302;BME280;36550;50.472;19.744;2023-01-27T06:30:05;98267.27;;;-1.39;82.19
50302;BME280;36550;50.472;19.744;2023-01-27T06:32:49;98267.53;;;-1.41;82.46
50302;BME280;36550;50.472;19.744;2023-01-27T06:35:35;98266.02;;;-1.45;82.42
50302;BME280;36550;50.472;19.744;2023-01-27T06:38:19;98266.17;;;-1.47;82.41
50302;BME280;36550;50.472;19.744;2023-01-27T06:41:04;98266.73;;;-1.45;82.45
50302;BME280;36550;50.472;19.744;2023-01-27T06:43:48;98269.74;;;-1.43;82.53
50302;BME280;36550;50.472;19.744;2023-01-27T06:46:31;98273.85;;;-1.39;82.53
50302;BME280;36550;50.472;19.744;2023-01-27T06:49:16;98274.09;;;-1.38;82.56
50302;BME280;36550;50.472;19.744;2023-01-27T06:52:00;98279.33;;;-1.43;82.63
50302;BME280;36550;50.472;19.744;2023-01-27T06:54:44;98283.91;;;-1.46;82.79
50302;BME280;36550;50.472;19.744;2023-01-27T06:57:28;98283.98;;;-1.48;83.11
50302;BME280;36550;50.472;19.744;2023-01-27T07:00:12;98283.80;;;-1.53;83.50
50302;BME280;36550;50.472;19.744;2023-01-27T07:02:56;98282.09;;;-1.57;83.58
50302;BME280;36550;50.472;19.744;2023-01-27T07:05:40;98285.43;;;-1.61;84.00
50302;BME280;36550;50.472;19.744;2023-01-27T07:08:24;98289.54;;;-1.64;84.28
50302;BME280;36550;50.472;19.744;2023-01-27T07:11:08;98289.73;;;-1.63;84.32
50302;BME280;36550;50.472;19.744;2023-01-27T07:13:52;98293.15;;;-1.59;84.08
50302;BME280;36550;50.472;19.744;2023-01-27T07:16:36;98295.47;;;-1.60;84.29
50302;BME280;36550;50.472;19.744;2023-01-27T07:19:20;98301.96;;;-1.58;84.21
50302;BME280;36550;50.472;19.744;2023-01-27T07:22:04;98302.30;;;-1.53;84.18
50302;BME280;36550;50.472;19.744;2023-01-27T07:24:48;98306.08;;;-1.47;83.90
50302;BME280;36550;50.472;19.744;2023-01-27T07:27:32;98308.68;;;-1.44;83.86
50302;BME280;36550;50.472;19.744;2023-01-27T07:30:16;98311.15;;;-1.43;83.94
50302;BME280;36550;50.472;19.744;2023-01-27T07:33:08;98309.69;;;-1.41;83.97
50302;BME280;36550;50.472;19.744;2023-01-27T07:35:52;98311.00;;;-1.37;83.70
50302;BME280;36550;50.472;19.744;2023-01-27T07:38:38;98306.91;;;-1.31;83.50
50302;BME280;36550;50.472;19.744;2023-01-27T07:41:22;98304.12;;;-1.31;83.37
50302;BME280;36550;50.472;19.744;2023-01-27T07:44:09;98305.45;;;-1.29;83.34
50302;BME280;36550;50.472;19.744;2023-01-27T07:46:53;98306.58;;;-1.25;83.21
50302;BME280;36550;50.472;19.744;2023-01-27T07:49:36;98302.85;;;-1.22;83.02
50302;BME280;36550;50.472;19.744;2023-01-27T07:52:20;98299.62;;;-1.15;82.90
50302;BME280;36550;50.472;19.744;2023-01-27T07:55:04;98302.48;;;-1.09;82.64
50302;BME280;36550;50.472;19.744;2023-01-27T07:57:52;98302.76;;;-1.05;82.45
50302;BME280;36550;50.472;19.744;2023-01-27T08:00:36;98300.53;;;-1.00;82.58
50302;BME280;36550;50.472;19.744;2023-01-27T08:03:24;98297.73;;;-0.94;82.52
50302;BME280;36550;50.472;19.744;2023-01-27T08:06:10;98303.09;;;-0.89;82.48
50302;BME280;36550;50.472;19.744;2023-01-27T08:08:54;98303.73;;;-0.84;82.38
50302;BME280;36550;50.472;19.744;2023-01-27T08:11:38;98301.62;;;-0.75;82.23
50302;BME280;36550;50.472;19.744;2023-01-27T08:14:22;98301.41;;;-0.61;82.14
50302;BME280;36550;50.472;19.744;2023-01-27T08:17:06;98299.95;;;-0.45;82.07
50302;BME280;36550;50.472;19.744;2023-01-27T08:19:52;98304.52;;;-0.30;81.83
50302;BME280;36550;50.472;19.744;2023-01-27T08:22:35;98307.20;;;-0.23;81.20
50302;BME280;36550;50.472;19.744;2023-01-27T08:25:20;98307.08;;;-0.18;81.10
50302;BME280;36550;50.472;19.744;2023-01-27T08:28:04;98307.87;;;-0.11;81.11
50302;BME280;36550;50.472;19.744;2023-01-27T08:30:48;98312.98;;;-0.04;80.97
50302;BME280;36550;50.472;19.744;2023-01-27T08:33:36;98313.19;;;0.04;81.00
50302;BME280;36550;50.472;19.744;2023-01-27T08:36:21;98318.23;;;0.12;80.97
50302;BME280;36550;50.472;19.744;2023-01-27T08:39:05;98320.23;;;0.19;80.80
50302;BME280;36550;50.472;19.744;2023-01-27T08:41:49;98313.18;;;0.29;80.33
50302;BME280;36550;50.472;19.744;2023-01-27T08:44:33;98315.18;;;0.36;80.06
50302;BME280;36550;50.472;19.744;2023-01-27T08:47:17;98312.34;;;0.42;79.69
50302;BME280;36550;50.472;19.744;2023-01-27T08:50:04;98312.11;;;0.47;79.49
50302;BME280;36550;50.472;19.744;2023-01-27T08:52:48;98316.44;;;0.49;78.35
50302;BME280;36550;50.472;19.744;2023-01-27T08:55:32;98316.56;;;0.45;77.82
50302;BME280;36550;50.472;19.744;2023-01-27T08:58:16;98316.43;;;0.42;78.03
50302;BME280;36550;50.472;19.744;2023-01-27T09:01:01;98320.08;;;0.44;78.33
50302;BME280;36550;50.472;19.744;2023-01-27T09:03:46;98323.70;;;0.46;78.40
50302;BME280;36550;50.472;19.744;2023-01-27T09:06:30;98322.42;;;0.46;78.50
50302;BME280;36550;50.472;19.744;2023-01-27T09:09:14;98330.73;;;0.49;78.16
50302;BME280;36550;50.472;19.744;2023-01-27T09:11:58;98334.67;;;0.49;77.54
50302;BME280;36550;50.472;19.744;2023-01-27T09:14:42;98339.59;;;0.47;76.22
50302;BME280;36550;50.472;19.744;2023-01-27T09:17:26;98340.58;;;0.42;76.35
50302;BME280;36550;50.472;19.744;2023-01-27T09:20:12;98343.52;;;0.38;76.60
50302;BME280;36550;50.472;19.744;2023-01-27T09:22:55;98344.39;;;0.37;76.62
50302;BME280;36550;50.472;19.744;2023-01-27T09:25:40;98354.36;;;0.35;76.71
50302;BME280;36550;50.472;19.744;2023-01-27T09:28:24;98354.62;;;0.34;76.06
50302;BME280;36550;50.472;19.744;2023-01-27T09:31:08;98356.16;;;0.30;75.37
50302;BME280;36550;50.472;19.744;2023-01-27T09:33:52;98357.86;;;0.28;75.36
50302;BME280;36550;50.472;19.744;2023-01-27T09:36:40;98360.40;;;0.33;76.01
50302;BME280;36550;50.472;19.744;2023-01-27T09:39:26;98361.75;;;0.39;76.08
50302;BME280;36550;50.472;19.744;2023-01-27T09:48:23;98354.95;;;0.44;75.35
50302;BME280;36550;50.472;19.744;2023-01-27T09:51:18;98359.72;;;0.47;75.55
50302;BME280;36550;50.472;19.744;2023-01-27T09:57:08;98353.04;;;0.46;75.86
50302;BME280;36550;50.472;19.744;2023-01-27T10:27:55;98360.68;;;0.93;72.51
50302;BME280;36550;50.472;19.744;2023-01-27T10:31:00;98359.75;;;0.97;72.79
50302;BME280;36550;50.472;19.744;2023-01-27T10:33:53;98357.63;;;0.99;72.82
50302;BME280;36550;50.472;19.744;2023-01-27T10:36:51;98361.98;;;0.95;72.66
50302;BME280;36550;50.472;19.744;2023-01-27T10:40:00;98357.66;;;0.95;72.41
50302;BME280;36550;50.472;19.744;2023-01-27T10:42:49;98353.96;;;0.91;72.11
50302;BME280;36550;50.472;19.744;2023-01-27T10:45:40;98348.77;;;0.90;72.08
50302;BME280;36550;50.472;19.744;2023-01-27T10:48:44;98344.84;;;0.93;72.37
50302;BME280;36550;50.472;19.744;2023-01-27T10:51:36;98340.80;;;0.95;72.55
50302;BME280;36550;50.472;19.744;2023-01-27T10:54:27;98340.69;;;0.93;71.90
50302;BME280;36550;50.472;19.744;2023-01-27T10:57:20;98342.64;;;0.96;71.78
50302;BME280;36550;50.472;19.744;2023-01-27T11:00:12;98340.23;;;0.94;71.89
50302;BME280;36550;50.472;19.744;2023-01-27T11:03:09;98339.98;;;0.84;71.67
50302;BME280;36550;50.472;19.744;2023-01-27T11:06:02;98339.55;;;0.78;71.85
50302;BME280;36550;50.472;19.744;2023-01-27T11:08:50;98342.89;;;0.74;71.93
50302;BME280;36550;50.472;19.744;2023-01-27T11:11:36;98338.74;;;0.66;71.38
50302;BME280;36550;50.472;19.744;2023-01-27T11:14:43;98340.12;;;0.65;71.26
50302;BME280;36550;50.472;19.744;2023-01-27T11:17:36;98336.73;;;0.59;71.67
50302;BME280;36550;50.472;19.744;2023-01-27T11:23:29;98332.77;;;0.64;72.29
50302;BME280;36550;50.472;19.744;2023-01-27T11:26:26;98333.48;;;0.64;72.12
50302;BME280;36550;50.472;19.744;2023-01-27T11:29:38;98337.52;;;0.65;72.60
50302;BME280;36550;50.472;19.744;2023-01-27T11:32:45;98338.27;;;0.64;72.82
50302;BME280;36550;50.472;19.744;2023-01-27T11:35:30;98341.80;;;0.62;72.67
50302;BME280;36550;50.472;19.744;2023-01-27T11:38:18;98339.77;;;0.64;72.81
50302;BME280;36550;50.472;19.744;2023-01-27T11:41:02;98338.11;;;0.70;72.53
50302;BME280;36550;50.472;19.744;2023-01-27T11:43:46;98340.67;;;0.74;72.80
50302;BME280;36550;50.472;19.744;2023-01-27T11:46:31;98342.20;;;0.71;72.92
50302;BME280;36550;50.472;19.744;2023-01-27T11:49:20;98344.77;;;0.66;73.23
50302;BME280;36550;50.472;19.744;2023-01-27T11:52:11;98347.45;;;0.70;73.18
50302;BME280;36550;50.472;19.744;2023-01-27T11:55:19;98348.16;;;0.73;72.78
50302;BME280;36550;50.472;19.744;2023-01-27T11:58:24;98344.64;;;0.75;72.68
50302;BME280;36550;50.472;19.744;2023-01-27T12:01:16;98348.88;;;0.74;72.94
50302;BME280;36550;50.472;19.744;2023-01-27T12:06:58;98340.64;;;0.69;72.28
50302;BME280;36550;50.472;19.744;2023-01-27T12:09:44;98343.99;;;0.69;71.77
50302;BME280;36550;50.472;19.744;2023-01-27T12:12:28;98343.20;;;0.66;71.52
50302;BME280;36550;50.472;19.744;2023-01-27T12:15:16;98340.48;;;0.72;71.95
50302;BME280;36550;50.472;19.744;2023-01-27T12:18:14;98339.54;;;0.68;71.99
50302;BME280;36550;50.472;19.744;2023-01-27T12:21:00;98332.83;;;0.67;72.06
50302;BME280;36550;50.472;19.744;2023-01-27T12:23:51;98338.87;;;0.68;71.84
50302;BME280;36550;50.472;19.744;2023-01-27T12:26:37;98342.25;;;0.73;72.13
50302;BME280;36550;50.472;19.744;2023-01-27T12:29:38;98341.96;;;0.75;71.92
50302;BME280;36550;50.472;19.744;2023-01-27T12:32:39;98348.23;;;0.73;71.61
50302;BME280;36550;50.472;19.744;2023-01-27T12:35:29;98347.55;;;0.72;71.95
50302;BME280;36550;50.472;19.744;2023-01-27T12:38:19;98348.10;;;0.69;72.11
50302;BME280;36550;50.472;19.744;2023-01-27T12:41:06;98347.15;;;0.60;71.98
50302;BME280;36550;50.472;19.744;2023-01-27T12:44:18;98340.58;;;0.64;72.20
50302;BME280;36550;50.472;19.744;2023-01-27T12:47:18;98349.10;;;0.61;72.46
50302;BME280;36550;50.472;19.744;2023-01-27T12:50:21;98348.77;;;0.59;72.60
50302;BME280;36550;50.472;19.744;2023-01-27T12:56:19;98347.85;;;0.56;72.83
50302;BME280;36550;50.472;19.744;2023-01-27T12:59:03;98342.16;;;0.61;72.97
50302;BME280;36550;50.472;19.744;2023-01-27T13:01:59;98339.36;;;0.67;73.02
50302;BME280;36550;50.472;19.744;2023-01-27T13:04:54;98338.96;;;0.66;72.90
50302;BME280;36550;50.472;19.744;2023-01-27T13:07:43;98343.98;;;0.59;72.47
50302;BME280;36550;50.472;19.744;2023-01-27T13:10:28;98341.29;;;0.53;72.78
50302;BME280;36550;50.472;19.744;2023-01-27T13:13:18;98344.95;;;0.51;72.57
50302;BME280;36550;50.472;19.744;2023-01-27T13:16:16;98345.27;;;0.50;72.27
50302;BME280;36550;50.472;19.744;2023-01-27T13:19:13;98345.70;;;0.49;72.86
50302;BME280;36550;50.472;19.744;2023-01-27T13:21:58;98347.80;;;0.44;72.61
50302;BME280;36550;50.472;19.744;2023-01-27T13:24:46;98345.88;;;0.44;72.81
50302;BME280;36550;50.472;19.744;2023-01-27T13:27:37;98344.91;;;0.44;72.98
50302;BME280;36550;50.472;19.744;2023-01-27T13:30:43;98344.95;;;0.41;72.70
50302;BME280;36550;50.472;19.744;2023-01-27T13:36:35;98346.37;;;0.52;72.97
50302;BME280;36550;50.472;19.744;2023-01-27T13:39:27;98344.95;;;0.53;73.05
50302;BME280;36550;50.472;19.744;2023-01-27T13:42:37;98343.80;;;0.52;72.86
50302;BME280;36550;50.472;19.744;2023-01-27T13:45:28;98344.48;;;0.52;72.41
50302;BME280;36550;50.472;19.744;2023-01-27T13:48:21;98343.55;;;0.50;72.28
50302;BME280;36550;50.472;19.744;2023-01-27T13:51:17;98344.04;;;0.44;71.83
50302;BME280;36550;50.472;19.744;2023-01-27T13:54:03;98338.41;;;0.41;71.25
50302;BME280;36550;50.472;19.744;2023-01-27T13:57:11;98340.26;;;0.42;70.51
50302;BME280;36550;50.472;19.744;2023-01-27T14:00:20;98343.30;;;0.47;70.26
50302;BME280;36550;50.472;19.744;2023-01-27T14:03:28;98345.20;;;0.46;69.49
50302;BME280;36550;50.472;19.744;2023-01-27T14:06:35;98347.59;;;0.41;67.51
50302;BME280;36550;50.472;19.744;2023-01-27T14:12:23;98347.48;;;0.27;68.65
50302;BME280;36550;50.472;19.744;2023-01-27T14:18:23;98355.08;;;0.15;69.95
50302;BME280;36550;50.472;19.744;2023-01-27T14:21:16;98357.23;;;0.15;70.46
50302;BME280;36550;50.472;19.744;2023-01-27T14:27:17;98355.23;;;0.06;71.24
50302;BME280;36550;50.472;19.744;2023-01-27T14:30:15;98357.13;;;-0.05;71.46
50302;BME280;36550;50.472;19.744;2023-01-27T14:36:20;98359.33;;;-0.20;71.40
50302;BME280;36550;50.472;19.744;2023-01-27T14:39:21;98360.88;;;-0.25;71.95
50302;BME280;36550;50.472;19.744;2023-01-27T14:42:36;98370.75;;;-0.31;72.16
50302;BME280;36550;50.472;19.744;2023-01-27T14:45:32;98372.90;;;-0.35;70.93
50302;BME280;36550;50.472;19.744;2023-01-27T14:48:36;98376.08;;;-0.36;70.06
50302;BME280;36550;50.472;19.744;2023-01-27T14:51:38;98380.55;;;-0.46;69.67
50302;BME280;36550;50.472;19.744;2023-01-27T14:54:35;98390.02;;;-0.48;69.92
50302;BME280;36550;50.472;19.744;2023-01-27T14:57:35;98394.28;;;-0.53;68.70
50302;BME280;36550;50.472;19.744;2023-01-27T15:12:12;98390.02;;;-0.49;68.21
50302;BME280;36550;50.472;19.744;2023-01-27T15:15:18;98393.29;;;-0.50;68.34
50302;BME280;36550;50.472;19.744;2023-01-27T15:18:35;98400.46;;;-0.49;68.50
50302;BME280;36550;50.472;19.744;2023-01-27T15:28:15;98406.50;;;-0.63;69.40
50302;BME280;36550;50.472;19.744;2023-01-27T15:40:12;98418.33;;;-0.58;69.40
50302;BME280;36550;50.472;19.744;2023-01-27T15:45:44;98423.26;;;-0.59;69.57
50302;BME280;36550;50.472;19.744;2023-01-27T15:48:32;98426.23;;;-0.62;69.63
50302;BME280;36550;50.472;19.744;2023-01-27T15:51:18;98424.27;;;-0.66;69.65
50302;BME280;36550;50.472;19.744;2023-01-27T15:54:05;98425.41;;;-0.64;69.61
50302;BME280;36550;50.472;19.744;2023-01-27T15:56:53;98420.31;;;-0.66;69.31
50302;BME280;36550;50.472;19.744;2023-01-27T15:59:47;98423.56;;;-0.67;69.94
50302;BME280;36550;50.472;19.744;2023-01-27T16:02:37;98422.73;;;-0.66;70.33
50302;BME280;36550;50.472;19.744;2023-01-27T16:05:29;98421.90;;;-0.64;70.50
50302;BME280;36550;50.472;19.744;2023-01-27T16:08:14;98423.27;;;-0.63;70.68
50302;BME280;36550;50.472;19.744;2023-01-27T16:11:20;98424.83;;;-0.64;70.82
50302;BME280;36550;50.472;19.744;2023-01-27T16:22:41;98422.08;;;-0.63;71.39
50302;BME280;36550;50.472;19.744;2023-01-27T16:25:37;98423.27;;;-0.64;71.66
50302;BME280;36550;50.472;19.744;2023-01-27T16:28:27;98425.65;;;-0.67;71.87